Time;durP1;ratioP1;P1;durP2;ratioP2;P2;SDS_P1;SDS_P2;PMS_P1;PMS_P2;Temp;Humidity;BMP_temperature;BMP_pressure;BME280_temperature;BME280_humidity;BME280_pressure;Samples;Min_cycle;Max_cycle;Signal;HPM_P1;HPM_P2
2021/12/28 15:20:23;;;;;;;4.22;1.73;;;17.40;99.90;;;;;;5010829;27;1290869;-63
2021/12/28 15:22:49;;;;;;;5.50;2.80;;;17.30;99.90;;;;;;4885632;28;105818;-64
2021/12/28 15:25:17;;;;;;;7.68;2.70;;;17.70;99.90;;;;;;5010072;28;20099;-65
2021/12/28 15:27:44;;;;;;;4.28;1.70;;;17.90;99.90;;;;;;5029787;28;20081;-64
2021/12/28 15:30:17;;;;;;;6.70;2.35;;;18.10;99.90;;;;;;5014296;28;20146;-67
2021/12/28 15:32:49;;;;;;;3.92;1.92;;;18.30;99.90;;;;;;5013941;28;20096;-63
2021/12/28 15:35:23;;;;;;;4.28;2.00;;;18.50;99.90;;;;;;4889624;28;20052;-61
2021/12/28 15:37:50;;;;;;;;;;;18.70;99.90;;;;;;5042230;28;20050;-60
2021/12/28 15:40:17;;;;;;;6.10;2.15;;;18.80;99.90;;;;;;5029971;28;20032;-64
2021/12/28 15:42:45;;;;;;;5.57;2.53;;;18.80;99.90;;;;;;5037937;28;20076;-72
2021/12/28 15:45:12;;;;;;;7.13;1.90;;;18.80;99.90;;;;;;4948943;28;20538;-58
2021/12/28 15:47:41;;;;;;;5.28;2.00;;;19.40;99.90;;;;;;4893942;28;20117;-57
2021/12/28 15:50:20;;;;;;;2.85;1.90;;;19.90;99.90;;;;;;4984004;28;117360;-56
2021/12/28 15:52:47;;;;;;;1.75;1.15;;;20.10;99.90;;;;;;5053668;28;20460;-58
2021/12/28 15:55:14;;;;;;;1.92;1.30;;;20.20;99.90;;;;;;5040954;28;20045;-53
2021/12/28 15:57:40;;;;;;;1.50;1.05;;;20.30;99.90;;;;;;5040973;28;20080;-55
2021/12/28 16:00:08;;;;;;;1.75;1.20;;;20.30;99.90;;;;;;4983414;28;20096;-56
2021/12/28 16:02:35;;;;;;;3.72;1.38;;;20.40;99.90;;;;;;5030255;28;20057;-57
2021/12/28 16:05:03;;;;;;;2.92;1.30;;;20.50;99.90;;;;;;5030707;28;20050;-54
2021/12/28 16:07:29;;;;;;;2.63;1.20;;;20.50;99.90;;;;;;5030101;28;20461;-57
2021/12/28 16:09:58;;;;;;;2.50;1.17;;;20.60;99.90;;;;;;5030077;28;20085;-52
2021/12/28 16:12:25;;;;;;;1.83;1.10;;;20.60;99.90;;;;;;5031305;28;20050;-50
2021/12/28 16:14:52;;;;;;;1.52;0.82;;;20.70;99.90;;;;;;5029828;28;20057;-52
2021/12/28 16:17:19;;;;;;;1.55;1.00;;;20.70;99.90;;;;;;5030570;28;20368;-54
2021/12/28 16:19:46;;;;;;;1.80;0.90;;;20.70;99.90;;;;;;5029480;28;20089;-50
2021/12/28 16:22:14;;;;;;;1.73;0.88;;;20.80;99.90;;;;;;5029647;28;20473;-54
2021/12/28 16:24:41;;;;;;;2.00;0.90;;;20.80;99.90;;;;;;5030858;28;20049;-55
2021/12/28 16:27:08;;;;;;;1.48;1.00;;;20.90;99.90;;;;;;5029482;28;20099;-54
2021/12/28 16:29:35;;;;;;;2.60;1.20;;;20.90;99.90;;;;;;5028624;28;20100;-56
2021/12/28 16:32:04;;;;;;;1.75;0.90;;;20.90;99.90;;;;;;5015923;28;20049;-53
2021/12/28 16:34:31;;;;;;;1.73;1.00;;;20.90;99.90;;;;;;5015279;28;20045;-51
2021/12/28 16:36:58;;;;;;;2.47;1.20;;;20.90;99.90;;;;;;5017795;28;20050;-56
2021/12/28 16:39:25;;;;;;;3.25;1.08;;;20.90;99.90;;;;;;5016321;28;20062;-51
2021/12/28 16:41:52;;;;;;;1.55;0.82;;;20.90;99.90;;;;;;4999639;28;20092;-52
2021/12/28 16:44:18;;;;;;;1.10;0.80;;;20.90;99.90;;;;;;5028032;28;20049;-58
2021/12/28 16:46:46;;;;;;;1.92;0.90;;;20.90;99.90;;;;;;5026962;28;20056;-57
2021/12/28 16:49:13;;;;;;;1.38;1.00;;;20.90;99.90;;;;;;5027269;28;20045;-52
2021/12/28 16:51:40;;;;;;;0.85;0.80;;;20.90;99.90;;;;;;5025520;28;20073;-53
2021/12/28 16:54:06;;;;;;;1.35;0.90;;;20.90;99.90;;;;;;5024735;28;20081;-55
2021/12/28 16:56:34;;;;;;;1.48;0.73;;;20.90;99.90;;;;;;5026636;28;20077;-56
2021/12/28 16:59:01;;;;;;;1.90;0.82;;;20.90;99.90;;;;;;5026576;28;20081;-57
2021/12/28 17:01:29;;;;;;;1.33;0.90;;;21.00;99.90;;;;;;5023413;28;20089;-57
2021/12/28 17:03:56;;;;;;;1.33;0.80;;;21.00;99.90;;;;;;5026551;28;20046;-56
2021/12/28 17:06:23;;;;;;;1.80;0.80;;;21.00;99.90;;;;;;5025864;28;20065;-56
2021/12/28 17:08:50;;;;;;;1.15;0.75;;;21.00;99.90;;;;;;5024979;28;20522;-56
2021/12/28 17:11:18;;;;;;;0.98;0.68;;;21.00;99.90;;;;;;5020846;28;20081;-54
2021/12/28 17:13:45;;;;;;;1.83;0.98;;;21.00;99.90;;;;;;5023232;28;20495;-53
2021/12/28 17:16:12;;;;;;;1.25;0.90;;;21.00;99.90;;;;;;5020103;28;20084;-54
2021/12/28 17:18:41;;;;;;;1.48;0.80;;;21.00;99.90;;;;;;5018925;28;20053;-56
2021/12/28 17:21:08;;;;;;;1.25;0.80;;;21.00;99.90;;;;;;5004686;28;20169;-56
2021/12/28 17:23:35;;;;;;;1.08;0.75;;;21.00;99.90;;;;;;5010483;28;20092;-56
2021/12/28 17:26:02;;;;;;;1.17;0.85;;;21.00;99.90;;;;;;5031781;28;20077;-54
2021/12/28 17:28:29;;;;;;;0.70;0.70;;;21.00;99.90;;;;;;5028707;28;20073;-53
2021/12/28 17:30:56;;;;;;;0.50;0.50;;;21.00;99.90;;;;;;5018392;28;20077;-53
2021/12/28 17:33:23;;;;;;;1.02;0.82;;;21.00;99.90;;;;;;5022518;28;20055;-56
2021/12/28 17:35:50;;;;;;;0.70;0.60;;;21.10;99.90;;;;;;5022573;28;20045;-53
2021/12/28 17:38:17;;;;;;;0.90;0.60;;;21.10;99.90;;;;;;5022073;28;20073;-56
2021/12/28 17:40:44;;;;;;;0.98;0.70;;;21.10;99.90;;;;;;5021628;28;20045;-54
2021/12/28 17:43:12;;;;;;;1.33;0.70;;;21.10;99.90;;;;;;5022323;28;20053;-52
2021/12/28 17:45:38;;;;;;;0.73;0.60;;;21.10;99.90;;;;;;5024083;28;20084;-53
2021/12/28 17:48:09;;;;;;;0.85;0.70;;;21.10;99.90;;;;;;5022286;28;20084;-49
2021/12/28 17:50:36;;;;;;;0.90;0.73;;;21.10;99.90;;;;;;5022630;28;20142;-47
2021/12/28 17:53:03;;;;;;;0.85;0.63;;;21.10;99.90;;;;;;5022829;28;20049;-54
2021/12/28 17:55:30;;;;;;;0.50;0.40;;;21.10;99.90;;;;;;5019943;28;20105;-51
2021/12/28 17:57:56;;;;;;;1.30;0.80;;;21.10;99.90;;;;;;5022068;28;20096;-48
2021/12/28 18:00:29;;;;;;;0.68;0.60;;;21.10;99.90;;;;;;5021037;28;20350;-51
2021/12/28 18:02:56;;;;;;;0.70;0.60;;;21.10;99.90;;;;;;5021961;28;20050;-51
2021/12/28 18:05:23;;;;;;;0.55;0.55;;;21.10;99.90;;;;;;5022879;28;20060;-52
2021/12/28 18:07:50;;;;;;;1.42;0.95;;;21.10;99.90;;;;;;5021549;28;20480;-50
2021/12/28 18:10:18;;;;;;;1.02;0.80;;;21.10;99.90;;;;;;5021571;28;20124;-46
2021/12/28 18:12:45;;;;;;;1.73;1.10;;;21.10;99.90;;;;;;5020255;28;20479;-52
2021/12/28 18:15:12;;;;;;;1.10;0.70;;;21.10;99.90;;;;;;5022500;28;20089;-52
2021/12/28 18:17:39;;;;;;;0.93;0.50;;;21.10;99.90;;;;;;5021179;28;20116;-51
2021/12/28 18:20:07;;;;;;;0.95;0.70;;;21.10;99.90;;;;;;5020777;28;20224;-51
2021/12/28 18:22:34;;;;;;;0.85;0.70;;;21.10;99.90;;;;;;5021966;28;20157;-53
2021/12/28 18:25:03;;;;;;;1.02;0.80;;;21.10;99.90;;;;;;5019861;28;20050;-51
2021/12/28 18:27:29;;;;;;;1.75;0.95;;;21.10;99.90;;;;;;5021152;28;20081;-48
2021/12/28 18:29:58;;;;;;;0.88;0.60;;;21.10;99.90;;;;;;5030295;28;20092;-53
2021/12/28 18:32:26;;;;;;;1.42;0.80;;;21.10;99.90;;;;;;5031859;28;20118;-56
2021/12/28 18:34:53;;;;;;;0.88;0.73;;;21.00;99.90;;;;;;4957258;28;20076;-46
2021/12/28 18:37:19;;;;;;;1.48;0.73;;;21.10;99.90;;;;;;4911384;28;20149;-50
2021/12/28 18:39:47;;;;;;;1.27;0.90;;;21.10;99.90;;;;;;5009992;28;20393;-51
2021/12/28 18:42:13;;;;;;;0.75;0.63;;;21.10;99.90;;;;;;5012329;28;20092;-51
2021/12/28 18:44:42;;;;;;;1.02;0.70;;;21.10;99.90;;;;;;5012622;28;20096;-59
2021/12/28 18:47:11;;;;;;;1.10;0.60;;;21.10;99.90;;;;;;5005455;28;20063;-48
2021/12/28 18:49:38;;;;;;;1.02;0.80;;;21.10;99.90;;;;;;5012232;28;20095;-47
2021/12/28 18:52:05;;;;;;;1.10;0.85;;;21.20;99.90;;;;;;5011757;28;20045;-51
2021/12/28 18:54:32;;;;;;;1.40;0.82;;;21.20;99.90;;;;;;5002115;28;20089;-55
2021/12/28 18:56:59;;;;;;;0.70;0.60;;;21.20;99.90;;;;;;5001847;28;20081;-46
2021/12/28 18:59:26;;;;;;;1.08;0.65;;;21.20;99.90;;;;;;5000304;28;20108;-50
2021/12/28 19:01:58;;;;;;;0.73;0.60;;;21.30;99.90;;;;;;5005713;28;20116;-52
2021/12/28 19:04:29;;;;;;;0.73;0.50;;;21.30;99.90;;;;;;5012583;28;20069;-51
2021/12/28 19:06:56;;;;;;;0.80;0.60;;;21.30;99.90;;;;;;5011601;28;20069;-52
2021/12/28 19:09:26;;;;;;;0.82;0.60;;;21.30;99.90;;;;;;5011881;28;20111;-48
2021/12/28 19:11:53;;;;;;;0.68;0.50;;;21.30;99.90;;;;;;5001572;28;20477;-52
2021/12/28 19:14:20;;;;;;;0.50;0.40;;;21.40;99.90;;;;;;4991555;28;20054;-53
2021/12/28 19:16:47;;;;;;;0.52;0.45;;;21.30;99.90;;;;;;4995029;28;20077;-48
2021/12/28 19:19:14;;;;;;;0.77;0.60;;;21.40;99.90;;;;;;4994943;28;20089;-50
2021/12/28 19:21:41;;;;;;;0.95;0.73;;;21.40;99.90;;;;;;4991583;28;20120;-50
2021/12/28 19:24:08;;;;;;;0.50;0.47;;;21.40;99.90;;;;;;4991244;28;20054;-50
2021/12/28 19:26:35;;;;;;;0.85;0.75;;;21.40;99.90;;;;;;4991397;28;20046;-50
2021/12/28 19:29:02;;;;;;;0.77;0.68;;;21.50;99.90;;;;;;4996167;28;20050;-51
2021/12/28 19:31:29;;;;;;;1.17;0.88;;;21.50;99.90;;;;;;4992013;28;20085;-48
2021/12/28 19:33:56;;;;;;;0.73;0.63;;;21.50;99.90;;;;;;4991548;28;20693;-46
2021/12/28 19:36:23;;;;;;;0.77;0.68;;;21.50;99.90;;;;;;4992028;28;20137;-47
2021/12/28 19:38:50;;;;;;;0.65;0.60;;;21.50;99.90;;;;;;4991625;28;20093;-50
2021/12/28 19:41:17;;;;;;;0.90;0.68;;;21.50;99.90;;;;;;4991757;28;20069;-48
2021/12/28 19:43:45;;;;;;;0.80;0.70;;;21.50;99.90;;;;;;5004372;28;20046;-49
2021/12/28 19:46:12;;;;;;;0.75;0.75;;;21.50;99.90;;;;;;5001386;28;20433;-48
2021/12/28 19:48:39;;;;;;;1.00;0.73;;;21.50;99.90;;;;;;4992044;28;20062;-53
2021/12/28 19:51:06;;;;;;;1.02;0.80;;;21.60;99.90;;;;;;4992032;28;20142;-53
2021/12/28 19:53:33;;;;;;;0.93;0.60;;;21.60;99.90;;;;;;4990970;28;20062;-49
2021/12/28 19:56:00;;;;;;;0.80;0.52;;;21.60;99.90;;;;;;4992401;28;20050;-48
2021/12/28 19:58:26;;;;;;;1.23;0.73;;;21.60;99.90;;;;;;4992512;28;20116;-50
2021/12/28 20:00:53;;;;;;;0.63;0.55;;;21.60;99.90;;;;;;4990599;28;20108;-51
2021/12/28 20:03:20;;;;;;;0.88;0.40;;;21.60;99.90;;;;;;4992038;28;20050;-51
2021/12/28 20:05:47;;;;;;;1.27;0.95;;;21.60;99.90;;;;;;4993669;28;20753;-48
2021/12/28 20:08:14;;;;;;;0.82;0.77;;;21.60;99.90;;;;;;4994458;28;20054;-49
2021/12/28 20:10:42;;;;;;;0.50;0.50;;;21.70;99.90;;;;;;4995391;28;20078;-47
2021/12/28 20:13:09;;;;;;;2.17;0.70;;;21.70;99.90;;;;;;4994256;28;20066;-48
2021/12/28 20:15:36;;;;;;;1.05;0.75;;;21.70;99.90;;;;;;4995324;28;20093;-48
2021/12/28 20:18:04;;;;;;;1.17;0.90;;;21.70;99.90;;;;;;4995310;28;20105;-50
2021/12/28 20:20:31;;;;;;;1.33;0.90;;;21.70;99.90;;;;;;4994403;28;20073;-53
2021/12/28 20:22:58;;;;;;;0.88;0.70;;;21.70;99.90;;;;;;4995131;28;20054;-51
2021/12/28 20:25:25;;;;;;;1.02;0.82;;;21.70;99.90;;;;;;4995743;28;20050;-55
2021/12/28 20:27:54;;;;;;;0.90;0.60;;;21.70;99.90;;;;;;4993697;28;20054;-48
2021/12/28 20:30:22;;;;;;;0.68;0.63;;;21.70;99.90;;;;;;4993056;28;20438;-53
2021/12/28 20:32:49;;;;;;;1.27;0.80;;;21.70;99.90;;;;;;4994304;28;20473;-52
2021/12/28 20:35:16;;;;;;;1.10;0.70;;;21.70;99.90;;;;;;4994962;28;20136;-54
2021/12/28 20:37:43;;;;;;;0.70;0.60;;;21.70;99.90;;;;;;4994368;28;20136;-49
2021/12/28 20:40:15;;;;;;;1.15;0.75;;;21.70;99.90;;;;;;4994718;28;20077;-51
2021/12/28 20:42:42;;;;;;;0.57;0.57;;;21.70;99.90;;;;;;4995376;28;20094;-52
2021/12/28 20:45:11;;;;;;;1.65;1.00;;;21.70;99.90;;;;;;5012478;28;20472;-51
2021/12/28 20:47:39;;;;;;;0.68;0.68;;;21.80;99.90;;;;;;5013419;28;20111;-55
2021/12/28 20:50:07;;;;;;;0.57;0.50;;;21.70;99.90;;;;;;5014905;28;20105;-49
2021/12/28 20:52:39;;;;;;;1.08;0.73;;;21.70;99.90;;;;;;5014074;28;20049;-53
2021/12/28 20:55:06;;;;;;;0.82;0.70;;;21.70;99.90;;;;;;5014695;28;20085;-51
2021/12/28 20:57:33;;;;;;;0.75;0.63;;;21.70;99.90;;;;;;5014670;28;20465;-55
2021/12/28 21:00:00;;;;;;;1.95;0.95;;;21.70;99.90;;;;;;5012962;28;20085;-51
2021/12/28 21:02:27;;;;;;;1.13;0.80;;;21.70;99.90;;;;;;5014272;28;20100;-50
2021/12/28 21:04:54;;;;;;;0.85;0.50;;;21.80;99.90;;;;;;5014425;28;20057;-46
2021/12/28 21:07:21;;;;;;;1.02;0.68;;;21.80;99.90;;;;;;5013538;28;20085;-50
2021/12/28 21:09:48;;;;;;;0.47;0.40;;;21.80;99.90;;;;;;5014388;28;20096;-56
2021/12/28 21:12:15;;;;;;;1.15;0.70;;;21.80;99.90;;;;;;5013771;28;20046;-48
